PWSweather.com
Personal Weather Stations
Station Observations
WODONGA
Wodonga, WodongaAU 3690

WodongaWodongaAU 3690

Lat: -36.121, Lon: 146.87

Elevation: 541

Station Type: Weather Station

http://www.wodongaweather.net

High Low Average
Temperature 62.2°F16.8°F 44.4°F6.9°F 52.7°F11.5°F
Dew Point 47.4°F8.6°F 42.2°F5.7°F 44.8°F7.1°F
Winds 11.4 mph WNW18.3 mph WNW 0.1 mph 0.2 mph 4.7 mph 7.6 mph
Wind Gusts 19.0 mph30.6 mph 0.7 mph1.1 mph 7.5 mph12.1 mph
Humidity 96% 53% 76%
Pressure 29.96 in1014.60 in 29.80 in1009.10 in -
Precipitation 3.03 in77.00 in - -
Hour Temp Dew Point Humidity Winds Wind Gusts Pressure Precip Precip Rate Daily Precip Total
12:00 AM 49.5°F9.7°C 46.9°F8.3°C 91% 1.0 mph E1.6 kmh E 2.2 mph3.5 kmh 29.85 in1010.8 mb 0.02 in0.5 mm 0.00 in0.0 mm 0.02 in0.5 mm
12:05 AM 49.5°F9.7°C 46.9°F8.3°C 91% 1.8 mph SE2.9 kmh SE 2.2 mph3.5 kmh 29.85 in1010.8 mb 0.02 in0.5 mm 0.00 in0.0 mm 0.02 in0.5 mm
12:10 AM 49.1°F9.5°C 46.6°F8.1°C 91% 1.3 mph SSE2.1 kmh SSE 2.2 mph3.5 kmh 29.86 in1011.2 mb 0.02 in0.5 mm 0.00 in0.0 mm 0.02 in0.5 mm
12:15 AM 49.1°F9.5°C 46.6°F8.1°C 91% 1.2 mph WSW1.9 kmh WSW 1.6 mph2.6 kmh 29.85 in1010.8 mb 0.02 in0.5 mm 0.00 in0.0 mm 0.02 in0.5 mm
12:20 AM 49.1°F9.5°C 46.6°F8.1°C 91% 1.0 mph W1.6 kmh W 1.6 mph2.6 kmh 29.85 in1010.8 mb 0.02 in0.5 mm 0.00 in0.0 mm 0.02 in0.5 mm
12:25 AM 48.9°F9.4°C 46.7°F8.2°C 92% 0.5 mph W0.8 kmh W 1.6 mph2.6 kmh 29.84 in1010.5 mb 0.02 in0.5 mm 0.00 in0.0 mm 0.02 in0.5 mm
12:30 AM 48.9°F9.4°C 46.7°F8.2°C 92% 0.8 mph W1.3 kmh W 1.6 mph2.6 kmh 29.84 in1010.5 mb 0.02 in0.5 mm 0.00 in0.0 mm 0.02 in0.5 mm
12:35 AM 48.9°F9.4°C 46.7°F8.2°C 92% 0.7 mph W1.1 kmh W 1.6 mph2.6 kmh 29.84 in1010.5 mb 0.02 in0.5 mm 0.00 in0.0 mm 0.02 in0.5 mm
12:40 AM 48.7°F9.3°C 46.5°F8.1°C 92% 0.2 mph W0.3 kmh W 1.6 mph2.6 kmh 29.83 in1010.2 mb 0.02 in0.5 mm 0.00 in0.0 mm 0.02 in0.5 mm
12:45 AM 48.7°F9.3°C 46.5°F8.1°C 92% 0.9 mph SW1.4 kmh SW 2.2 mph3.5 kmh 29.83 in1010.2 mb 0.02 in0.5 mm 0.00 in0.0 mm 0.02 in0.5 mm
12:50 AM 48.6°F9.2°C 46.3°F7.9°C 92% 1.2 mph SW1.9 kmh SW 2.2 mph3.5 kmh 29.83 in1010.2 mb 0.02 in0.5 mm 0.00 in0.0 mm 0.02 in0.5 mm
12:55 AM 48.4°F9.1°C 46.5°F8.1°C 93% 0.5 mph SW0.8 kmh SW 1.6 mph2.6 kmh 29.84 in1010.5 mb 0.02 in0.5 mm 0.00 in0.0 mm 0.02 in0.5 mm
01:00 AM 48.6°F9.2°C 46.6°F8.1°C 93% 0.5 mph S0.8 kmh S 2.2 mph3.5 kmh 29.83 in1010.2 mb 0.00 in0.0 mm 0.00 in0.0 mm 0.02 in0.5 mm
01:05 AM 48.6°F9.2°C 46.6°F8.1°C 93% 0.9 mph S1.4 kmh S 2.2 mph3.5 kmh 29.82 in1009.8 mb 0.00 in0.0 mm 0.00 in0.0 mm 0.02 in0.5 mm
01:10 AM 48.7°F9.3°C 46.8°F8.2°C 93% 0.7 mph SSE1.1 kmh SSE 2.2 mph3.5 kmh 29.82 in1009.8 mb 0.00 in0.0 mm 0.00 in0.0 mm 0.02 in0.5 mm
01:15 AM 48.6°F9.2°C 46.6°F8.1°C 93% 1.1 mph W1.8 kmh W 3.8 mph6.1 kmh 29.83 in1010.2 mb 0.02 in0.5 mm 0.24 in6.1 mm 0.02 in0.5 mm
01:20 AM 48.6°F9.2°C 46.6°F8.1°C 93% 2.6 mph WSW4.2 kmh WSW 4.5 mph7.2 kmh 29.84 in1010.5 mb 0.05 in1.3 mm 0.36 in9.1 mm 0.05 in1.3 mm
01:25 AM 48.6°F9.2°C 46.6°F8.1°C 93% 2.8 mph WSW4.5 kmh WSW 4.5 mph7.2 kmh 29.84 in1010.5 mb 0.09 in2.3 mm 0.48 in12.2 mm 0.09 in2.3 mm
01:30 AM 48.6°F9.2°C 46.6°F8.1°C 93% 1.8 mph WSW2.9 kmh WSW 3.8 mph6.1 kmh 29.83 in1010.2 mb 0.12 in3.0 mm 0.36 in9.1 mm 0.12 in3.0 mm
01:35 AM 48.6°F9.2°C 46.6°F8.1°C 93% 1.6 mph W2.6 kmh W 3.1 mph5.0 kmh 29.83 in1010.2 mb 0.14 in3.6 mm 0.24 in6.1 mm 0.14 in3.6 mm
01:40 AM 48.4°F9.1°C 46.5°F8.1°C 93% 1.6 mph WNW2.6 kmh WNW 3.1 mph5.0 kmh 29.82 in1009.8 mb 0.14 in3.6 mm 0.00 in0.0 mm 0.14 in3.6 mm
01:45 AM 48.4°F9.1°C 46.5°F8.1°C 93% 2.0 mph NW3.2 kmh NW 3.1 mph5.0 kmh 29.82 in1009.8 mb 0.14 in3.6 mm 0.00 in0.0 mm 0.14 in3.6 mm
01:50 AM 48.4°F9.1°C 46.5°F8.1°C 93% 1.5 mph NW2.4 kmh NW 3.1 mph5.0 kmh 29.82 in1009.8 mb 0.14 in3.6 mm 0.00 in0.0 mm 0.14 in3.6 mm
01:55 AM 48.4°F9.1°C 46.5°F8.1°C 93% 1.4 mph W2.3 kmh W 3.1 mph5.0 kmh 29.82 in1009.8 mb 0.14 in3.6 mm 0.00 in0.0 mm 0.14 in3.6 mm
02:00 AM 48.4°F9.1°C 46.5°F8.1°C 93% 2.1 mph W3.4 kmh W 3.1 mph5.0 kmh 29.82 in1009.8 mb 0.17 in4.3 mm 0.03 in0.8 mm 0.17 in4.3 mm
02:05 AM 48.4°F9.1°C 46.5°F8.1°C 93% 2.8 mph WNW4.5 kmh WNW 4.5 mph7.2 kmh 29.81 in1009.5 mb 0.17 in4.3 mm 0.00 in0.0 mm 0.17 in4.3 mm
02:10 AM 48.2°F9.0°C 46.3°F7.9°C 93% 3.8 mph NW6.1 kmh NW 4.5 mph7.2 kmh 29.81 in1009.5 mb 0.17 in4.3 mm 0.00 in0.0 mm 0.17 in4.3 mm
02:15 AM 47.8°F8.8°C 46.2°F7.9°C 94% 4.1 mph NNW6.6 kmh NNW 6.0 mph9.7 kmh 29.81 in1009.5 mb 0.15 in3.8 mm 0.00 in0.0 mm 0.17 in4.3 mm
02:20 AM 47.8°F8.8°C 46.2°F7.9°C 94% 4.4 mph NW7.1 kmh NW 6.9 mph11.1 kmh 29.81 in1009.5 mb 0.12 in3.0 mm 0.00 in0.0 mm 0.17 in4.3 mm
02:25 AM 48.0°F8.9°C 46.4°F8.0°C 94% 4.7 mph NW7.6 kmh NW 6.9 mph11.1 kmh 29.81 in1009.5 mb 0.08 in2.0 mm 0.00 in0.0 mm 0.17 in4.3 mm
02:30 AM 48.0°F8.9°C 46.4°F8.0°C 94% 4.3 mph WNW6.9 kmh WNW 6.0 mph9.7 kmh 29.80 in1009.1 mb 0.05 in1.3 mm 0.00 in0.0 mm 0.17 in4.3 mm
02:35 AM 48.0°F8.9°C 46.4°F8.0°C 94% 4.6 mph NW7.4 kmh NW 6.9 mph11.1 kmh 29.80 in1009.1 mb 0.03 in0.8 mm 0.00 in0.0 mm 0.17 in4.3 mm
02:40 AM 48.0°F8.9°C 46.7°F8.2°C 95% 5.0 mph NW8.0 kmh NW 6.9 mph11.1 kmh 29.81 in1009.5 mb 0.05 in1.3 mm 0.24 in6.1 mm 0.18 in4.6 mm
02:45 AM 47.8°F8.8°C 46.5°F8.1°C 95% 4.8 mph WNW7.7 kmh WNW 6.0 mph9.7 kmh 29.81 in1009.5 mb 0.08 in2.0 mm 0.36 in9.1 mm 0.21 in5.3 mm
02:50 AM 48.0°F8.9°C 46.7°F8.2°C 95% 4.2 mph WNW6.8 kmh WNW 6.0 mph9.7 kmh 29.80 in1009.1 mb 0.08 in2.0 mm 0.00 in0.0 mm 0.21 in5.3 mm
02:55 AM 47.8°F8.8°C 46.5°F8.1°C 95% 4.5 mph NW7.2 kmh NW 6.9 mph11.1 kmh 29.80 in1009.1 mb 0.09 in2.3 mm 0.12 in3.0 mm 0.23 in5.8 mm
03:00 AM 47.8°F8.8°C 46.8°F8.2°C 96% 5.6 mph NW9.0 kmh NW 7.6 mph12.2 kmh 29.80 in1009.1 mb 0.06 in1.5 mm 0.00 in0.0 mm 0.23 in5.8 mm
03:05 AM 47.7°F8.7°C 46.6°F8.1°C 96% 5.9 mph WNW9.5 kmh WNW 8.3 mph13.4 kmh 29.80 in1009.1 mb 0.06 in1.5 mm 0.00 in0.0 mm 0.23 in5.8 mm
03:10 AM 47.7°F8.7°C 46.6°F8.1°C 96% 6.3 mph NW10.1 kmh NW 8.3 mph13.4 kmh 29.80 in1009.1 mb 0.06 in1.5 mm 0.00 in0.0 mm 0.23 in5.8 mm
03:15 AM 47.7°F8.7°C 46.6°F8.1°C 96% 6.1 mph NW9.8 kmh NW 7.6 mph12.2 kmh 29.80 in1009.1 mb 0.06 in1.5 mm 0.00 in0.0 mm 0.23 in5.8 mm
03:20 AM 47.5°F8.6°C 46.1°F7.8°C 95% 5.2 mph NW8.4 kmh NW 9.8 mph15.8 kmh 29.80 in1009.1 mb 0.06 in1.5 mm 0.00 in0.0 mm 0.23 in5.8 mm
03:25 AM 47.3°F8.5°C 45.9°F7.7°C 95% 5.3 mph NW8.5 kmh NW 9.8 mph15.8 kmh 29.80 in1009.1 mb 0.06 in1.5 mm 0.00 in0.0 mm 0.23 in5.8 mm
03:30 AM 47.1°F8.4°C 45.8°F7.7°C 95% 5.6 mph NW9.0 kmh NW 9.8 mph15.8 kmh 29.80 in1009.1 mb 0.06 in1.5 mm 0.00 in0.0 mm 0.23 in5.8 mm
03:35 AM 46.9°F8.3°C 45.6°F7.6°C 95% 6.0 mph WNW9.7 kmh WNW 10.7 mph17.2 kmh 29.80 in1009.1 mb 0.06 in1.5 mm 0.00 in0.0 mm 0.23 in5.8 mm
03:40 AM 46.8°F8.2°C 45.4°F7.4°C 95% 7.2 mph WNW11.6 kmh WNW 10.7 mph17.2 kmh 29.80 in1009.1 mb 0.05 in1.3 mm 0.00 in0.0 mm 0.23 in5.8 mm
03:45 AM 46.8°F8.2°C 45.4°F7.4°C 95% 6.2 mph WNW10.0 kmh WNW 10.7 mph17.2 kmh 29.80 in1009.1 mb 0.02 in0.5 mm 0.00 in0.0 mm 0.23 in5.8 mm
03:50 AM 46.8°F8.2°C 45.4°F7.4°C 95% 3.9 mph WNW6.3 kmh WNW 6.9 mph11.1 kmh 29.80 in1009.1 mb 0.02 in0.5 mm 0.00 in0.0 mm 0.23 in5.8 mm
03:55 AM 46.6°F8.1°C 44.9°F7.2°C 94% 3.7 mph WNW6.0 kmh WNW 6.9 mph11.1 kmh 29.80 in1009.1 mb 0.00 in0.0 mm 0.00 in0.0 mm 0.23 in5.8 mm
04:00 AM 46.6°F8.1°C 44.9°F7.2°C 94% 4.2 mph WNW6.8 kmh WNW 6.9 mph11.1 kmh 29.80 in1009.1 mb 0.00 in0.0 mm 0.00 in0.0 mm 0.23 in5.8 mm
04:05 AM 46.4°F8.0°C 44.5°F6.9°C 93% 4.0 mph WNW6.4 kmh WNW 6.0 mph9.7 kmh 29.80 in1009.1 mb 0.00 in0.0 mm 0.00 in0.0 mm 0.23 in5.8 mm
04:10 AM 46.2°F7.9°C 44.3°F6.8°C 93% 4.7 mph WNW7.6 kmh WNW 7.6 mph12.2 kmh 29.80 in1009.1 mb 0.00 in0.0 mm 0.00 in0.0 mm 0.23 in5.8 mm
04:15 AM 46.2°F7.9°C 44.3°F6.8°C 93% 5.1 mph WNW8.2 kmh WNW 9.8 mph15.8 kmh 29.80 in1009.1 mb 0.00 in0.0 mm 0.00 in0.0 mm 0.23 in5.8 mm
04:20 AM 46.2°F7.9°C 44.3°F6.8°C 93% 4.5 mph W7.2 kmh W 9.8 mph15.8 kmh 29.80 in1009.1 mb 0.00 in0.0 mm 0.00 in0.0 mm 0.23 in5.8 mm
04:25 AM 46.0°F7.8°C 44.1°F6.7°C 93% 5.2 mph WNW8.4 kmh WNW 8.3 mph13.4 kmh 29.80 in1009.1 mb 0.00 in0.0 mm 0.00 in0.0 mm 0.23 in5.8 mm
04:30 AM 45.9°F7.7°C 44.0°F6.7°C 93% 4.7 mph W7.6 kmh W 8.3 mph13.4 kmh 29.81 in1009.5 mb 0.00 in0.0 mm 0.00 in0.0 mm 0.23 in5.8 mm
04:35 AM 45.7°F7.6°C 43.5°F6.4°C 92% 3.3 mph WNW5.3 kmh WNW 6.9 mph11.1 kmh 29.81 in1009.5 mb 0.00 in0.0 mm 0.00 in0.0 mm 0.23 in5.8 mm
04:40 AM 45.5°F7.5°C 43.3°F6.3°C 92% 4.4 mph WNW7.1 kmh WNW 7.6 mph12.2 kmh 29.80 in1009.1 mb 0.00 in0.0 mm 0.00 in0.0 mm 0.23 in5.8 mm
04:45 AM 45.3°F7.4°C 43.1°F6.2°C 92% 5.8 mph WSW9.3 kmh WSW 11.4 mph18.3 kmh 29.81 in1009.5 mb 0.00 in0.0 mm 0.00 in0.0 mm 0.23 in5.8 mm
04:50 AM 45.3°F7.4°C 43.1°F6.2°C 92% 6.5 mph WSW10.5 kmh WSW 11.4 mph18.3 kmh 29.81 in1009.5 mb 0.00 in0.0 mm 0.00 in0.0 mm 0.23 in5.8 mm
04:55 AM 45.1°F7.3°C 43.0°F6.1°C 92% 5.5 mph WSW8.9 kmh WSW 11.4 mph18.3 kmh 29.82 in1009.8 mb 0.00 in0.0 mm 0.00 in0.0 mm 0.23 in5.8 mm
05:00 AM 45.1°F7.3°C 43.0°F6.1°C 92% 4.3 mph WSW6.9 kmh WSW 6.0 mph9.7 kmh 29.82 in1009.8 mb 0.00 in0.0 mm 0.00 in0.0 mm 0.23 in5.8 mm
05:05 AM 45.0°F7.2°C 42.8°F6.0°C 92% 5.0 mph W8.0 kmh W 6.9 mph11.1 kmh 29.82 in1009.8 mb 0.00 in0.0 mm 0.00 in0.0 mm 0.23 in5.8 mm
05:10 AM 45.0°F7.2°C 42.8°F6.0°C 92% 5.3 mph W8.5 kmh W 6.9 mph11.1 kmh 29.81 in1009.5 mb 0.00 in0.0 mm 0.00 in0.0 mm 0.23 in5.8 mm
05:15 AM 45.0°F7.2°C 42.8°F6.0°C 92% 4.8 mph W7.7 kmh W 6.9 mph11.1 kmh 29.82 in1009.8 mb 0.00 in0.0 mm 0.00 in0.0 mm 0.23 in5.8 mm
05:20 AM 44.8°F7.1°C 42.6°F5.9°C 92% 4.8 mph W7.7 kmh W 6.9 mph11.1 kmh 29.82 in1009.8 mb 0.00 in0.0 mm 0.00 in0.0 mm 0.23 in5.8 mm
05:25 AM 44.6°F7.0°C 42.4°F5.8°C 92% 4.2 mph W6.8 kmh W 6.9 mph11.1 kmh 29.82 in1009.8 mb 0.00 in0.0 mm 0.00 in0.0 mm 0.23 in5.8 mm
05:30 AM 44.6°F7.0°C 42.4°F5.8°C 92% 4.1 mph W6.6 kmh W 7.6 mph12.2 kmh 29.83 in1010.2 mb 0.00 in0.0 mm 0.00 in0.0 mm 0.23 in5.8 mm
05:35 AM 44.4°F6.9°C 42.2°F5.7°C 92% 3.5 mph W5.6 kmh W 7.6 mph12.2 kmh 29.83 in1010.2 mb 0.00 in0.0 mm 0.00 in0.0 mm 0.23 in5.8 mm
05:40 AM 44.4°F6.9°C 42.2°F5.7°C 92% 2.1 mph E3.4 kmh E 3.1 mph5.0 kmh 29.83 in1010.2 mb 0.00 in0.0 mm 0.00 in0.0 mm 0.23 in5.8 mm
05:45 AM 44.4°F6.9°C 42.5°F5.8°C 93% 2.1 mph ESE3.4 kmh ESE 3.1 mph5.0 kmh 29.83 in1010.2 mb 0.00 in0.0 mm 0.00 in0.0 mm 0.23 in5.8 mm
05:50 AM 44.6°F7.0°C 42.7°F5.9°C 93% 2.1 mph SE3.4 kmh SE 3.1 mph5.0 kmh 29.83 in1010.2 mb 0.00 in0.0 mm 0.00 in0.0 mm 0.23 in5.8 mm
05:55 AM 44.6°F7.0°C 43.0°F6.1°C 94% 1.6 mph ESE2.6 kmh ESE 3.1 mph5.0 kmh 29.84 in1010.5 mb 0.00 in0.0 mm 0.00 in0.0 mm 0.23 in5.8 mm
06:00 AM 44.8°F7.1°C 43.2°F6.2°C 94% 2.0 mph E3.2 kmh E 3.1 mph5.0 kmh 29.84 in1010.5 mb 0.00 in0.0 mm 0.00 in0.0 mm 0.23 in5.8 mm
06:05 AM 45.0°F7.2°C 43.3°F6.3°C 94% 2.3 mph E3.7 kmh E 3.1 mph5.0 kmh 29.84 in1010.5 mb 0.00 in0.0 mm 0.00 in0.0 mm 0.23 in5.8 mm
06:10 AM 45.1°F7.3°C 43.5°F6.4°C 94% 2.0 mph SE3.2 kmh SE 2.2 mph3.5 kmh 29.85 in1010.8 mb 0.00 in0.0 mm 0.00 in0.0 mm 0.23 in5.8 mm
06:15 AM 45.1°F7.3°C 43.5°F6.4°C 94% 2.0 mph SW3.2 kmh SW 3.8 mph6.1 kmh 29.85 in1010.8 mb 0.00 in0.0 mm 0.00 in0.0 mm 0.23 in5.8 mm
06:20 AM 45.1°F7.3°C 43.2°F6.2°C 93% 2.4 mph WSW3.9 kmh WSW 4.5 mph7.2 kmh 29.85 in1010.8 mb 0.00 in0.0 mm 0.00 in0.0 mm 0.23 in5.8 mm
06:25 AM 45.1°F7.3°C 43.2°F6.2°C 93% 2.1 mph SW3.4 kmh SW 4.5 mph7.2 kmh 29.85 in1010.8 mb 0.00 in0.0 mm 0.00 in0.0 mm 0.23 in5.8 mm
06:30 AM 45.1°F7.3°C 43.2°F6.2°C 93% 2.5 mph WSW4.0 kmh WSW 6.9 mph11.1 kmh 29.85 in1010.8 mb 0.00 in0.0 mm 0.00 in0.0 mm 0.23 in5.8 mm
06:35 AM 45.5°F7.5°C 43.3°F6.3°C 92% 3.1 mph WSW5.0 kmh WSW 6.9 mph11.1 kmh 29.85 in1010.8 mb 0.00 in0.0 mm 0.00 in0.0 mm 0.23 in5.8 mm
06:40 AM 45.5°F7.5°C 43.3°F6.3°C 92% 3.6 mph WSW5.8 kmh WSW 6.9 mph11.1 kmh 29.86 in1011.2 mb 0.00 in0.0 mm 0.00 in0.0 mm 0.23 in5.8 mm
06:45 AM 45.9°F7.7°C 43.7°F6.5°C 92% 4.2 mph W6.8 kmh W 6.9 mph11.1 kmh 29.86 in1011.2 mb 0.00 in0.0 mm 0.00 in0.0 mm 0.23 in5.8 mm
06:50 AM 45.7°F7.6°C 43.2°F6.2°C 91% 4.1 mph WSW6.6 kmh WSW 7.6 mph12.2 kmh 29.86 in1011.2 mb 0.00 in0.0 mm 0.00 in0.0 mm 0.23 in5.8 mm
06:55 AM 45.9°F7.7°C 43.1°F6.2°C 90% 4.1 mph WSW6.6 kmh WSW 7.6 mph12.2 kmh 29.86 in1011.2 mb 0.00 in0.0 mm 0.00 in0.0 mm 0.23 in5.8 mm
07:00 AM 46.0°F7.8°C 43.3°F6.3°C 90% 3.9 mph W6.3 kmh W 6.9 mph11.1 kmh 29.86 in1011.2 mb 0.00 in0.0 mm 0.00 in0.0 mm 0.23 in5.8 mm
07:05 AM 46.0°F7.8°C 43.3°F6.3°C 90% 4.8 mph WSW7.7 kmh WSW 8.3 mph13.4 kmh 29.87 in1011.5 mb 0.00 in0.0 mm 0.00 in0.0 mm 0.23 in5.8 mm
07:10 AM 46.0°F7.8°C 43.0°F6.1°C 89% 6.7 mph W10.8 kmh W 9.2 mph14.8 kmh 29.87 in1011.5 mb 0.00 in0.0 mm 0.00 in0.0 mm 0.23 in5.8 mm
07:15 AM 45.9°F7.7°C 42.8°F6.0°C 89% 7.3 mph W11.7 kmh W 9.8 mph15.8 kmh 29.88 in1011.9 mb 0.00 in0.0 mm 0.00 in0.0 mm 0.23 in5.8 mm
07:20 AM 46.2°F7.9°C 43.2°F6.2°C 89% 6.1 mph W9.8 kmh W 10.7 mph17.2 kmh 29.88 in1011.9 mb 0.00 in0.0 mm 0.00 in0.0 mm 0.23 in5.8 mm
07:25 AM 46.6°F8.1°C 43.2°F6.2°C 88% 6.0 mph W9.7 kmh W 10.7 mph17.2 kmh 29.88 in1011.9 mb 0.00 in0.0 mm 0.00 in0.0 mm 0.23 in5.8 mm
07:30 AM 46.9°F8.3°C 43.6°F6.4°C 88% 6.4 mph W10.3 kmh W 10.7 mph17.2 kmh 29.88 in1011.9 mb 0.00 in0.0 mm 0.00 in0.0 mm 0.23 in5.8 mm
07:35 AM 47.3°F8.5°C 43.3°F6.3°C 86% 6.3 mph WNW10.1 kmh WNW 10.7 mph17.2 kmh 29.87 in1011.5 mb 0.00 in0.0 mm 0.00 in0.0 mm 0.23 in5.8 mm
07:40 AM 47.3°F8.5°C 43.3°F6.3°C 86% 6.4 mph W10.3 kmh W 10.7 mph17.2 kmh 29.87 in1011.5 mb 0.00 in0.0 mm 0.00 in0.0 mm 0.23 in5.8 mm
07:45 AM 47.7°F8.7°C 43.4°F6.3°C 85% 6.8 mph W10.9 kmh W 11.4 mph18.3 kmh 29.87 in1011.5 mb 0.00 in0.0 mm 0.00 in0.0 mm 0.23 in5.8 mm
07:50 AM 48.0°F8.9°C 43.7°F6.5°C 85% 6.9 mph WNW11.1 kmh WNW 11.4 mph18.3 kmh 29.88 in1011.9 mb 0.00 in0.0 mm 0.00 in0.0 mm 0.23 in5.8 mm
07:55 AM 48.2°F9.0°C 43.6°F6.4°C 84% 7.6 mph W12.2 kmh W 10.7 mph17.2 kmh 29.87 in1011.5 mb 0.00 in0.0 mm 0.00 in0.0 mm 0.23 in5.8 mm
08:00 AM 48.6°F9.2°C 43.6°F6.4°C 83% 8.5 mph W13.7 kmh W 10.7 mph17.2 kmh 29.87 in1011.5 mb 0.00 in0.0 mm 0.00 in0.0 mm 0.23 in5.8 mm
08:05 AM 48.7°F9.3°C 43.5°F6.4°C 82% 8.7 mph W14.0 kmh W 11.4 mph18.3 kmh 29.87 in1011.5 mb 0.00 in0.0 mm 0.00 in0.0 mm 0.23 in5.8 mm
08:10 AM 48.9°F9.4°C 43.7°F6.5°C 82% 9.4 mph W15.1 kmh W 12.1 mph19.5 kmh 29.88 in1011.9 mb 0.00 in0.0 mm 0.00 in0.0 mm 0.23 in5.8 mm
08:15 AM 49.8°F9.9°C 44.6°F7.0°C 82% 7.1 mph W11.4 kmh W 12.1 mph19.5 kmh 29.89 in1012.2 mb 0.00 in0.0 mm 0.00 in0.0 mm 0.23 in5.8 mm
08:20 AM 49.6°F9.8°C 43.7°F6.5°C 80% 5.6 mph W9.0 kmh W 8.3 mph13.4 kmh 29.88 in1011.9 mb 0.00 in0.0 mm 0.00 in0.0 mm 0.23 in5.8 mm
08:25 AM 50.4°F10.2°C 44.8°F7.1°C 81% 6.4 mph WNW10.3 kmh WNW 10.7 mph17.2 kmh 29.89 in1012.2 mb 0.00 in0.0 mm 0.00 in0.0 mm 0.23 in5.8 mm
08:30 AM 50.4°F10.2°C 44.4°F6.9°C 80% 6.3 mph WNW10.1 kmh WNW 10.7 mph17.2 kmh 29.89 in1012.2 mb 0.00 in0.0 mm 0.00 in0.0 mm 0.23 in5.8 mm
08:35 AM 50.7°F10.4°C 44.8°F7.1°C 80% 6.0 mph W9.7 kmh W 9.2 mph14.8 kmh 29.90 in1012.5 mb 0.00 in0.0 mm 0.00 in0.0 mm 0.23 in5.8 mm
08:40 AM 49.8°F9.9°C 43.2°F6.2°C 78% 7.6 mph W12.2 kmh W 11.4 mph18.3 kmh 29.90 in1012.5 mb 0.00 in0.0 mm 0.00 in0.0 mm 0.23 in5.8 mm
08:45 AM 49.6°F9.8°C 43.1°F6.2°C 78% 8.7 mph WNW14.0 kmh WNW 11.4 mph18.3 kmh 29.89 in1012.2 mb 0.00 in0.0 mm 0.00 in0.0 mm 0.23 in5.8 mm
08:50 AM 49.6°F9.8°C 43.4°F6.3°C 79% 6.8 mph WNW10.9 kmh WNW 12.1 mph19.5 kmh 29.90 in1012.5 mb 0.00 in0.0 mm 0.00 in0.0 mm 0.23 in5.8 mm
08:55 AM 50.4°F10.2°C 44.1°F6.7°C 79% 4.5 mph W7.2 kmh W 12.1 mph19.5 kmh 29.90 in1012.5 mb 0.00 in0.0 mm 0.00 in0.0 mm 0.23 in5.8 mm
09:00 AM 50.4°F10.2°C 44.1°F6.7°C 79% 4.3 mph WNW6.9 kmh WNW 8.3 mph13.4 kmh 29.90 in1012.5 mb 0.00 in0.0 mm 0.00 in0.0 mm 0.23 in5.8 mm
09:05 AM 50.7°F10.4°C 44.5°F6.9°C 79% 5.6 mph WNW9.0 kmh WNW 8.3 mph13.4 kmh 29.90 in1012.5 mb 0.00 in0.0 mm 0.00 in0.0 mm 0.23 in5.8 mm
09:10 AM 51.3°F10.7°C 44.6°F7.0°C 78% 5.5 mph W8.9 kmh W 8.3 mph13.4 kmh 29.89 in1012.2 mb 0.00 in0.0 mm 0.00 in0.0 mm 0.23 in5.8 mm
09:15 AM 52.2°F11.2°C 44.8°F7.1°C 76% 4.8 mph WSW7.7 kmh WSW 7.6 mph12.2 kmh 29.89 in1012.2 mb 0.00 in0.0 mm 0.00 in0.0 mm 0.23 in5.8 mm
09:20 AM 52.2°F11.2°C 44.5°F6.9°C 75% 5.9 mph W9.5 kmh W 9.8 mph15.8 kmh 29.90 in1012.5 mb 0.00 in0.0 mm 0.00 in0.0 mm 0.23 in5.8 mm
09:25 AM 52.7°F11.5°C 45.0°F7.2°C 75% 5.9 mph W9.5 kmh W 9.8 mph15.8 kmh 29.89 in1012.2 mb 0.00 in0.0 mm 0.00 in0.0 mm 0.23 in5.8 mm
09:30 AM 52.9°F11.6°C 45.2°F7.3°C 75% 4.3 mph WSW6.9 kmh WSW 6.9 mph11.1 kmh 29.89 in1012.2 mb 0.00 in0.0 mm 0.00 in0.0 mm 0.23 in5.8 mm
09:35 AM 54.1°F12.3°C 45.7°F7.6°C 73% 4.9 mph WNW7.9 kmh WNW 7.6 mph12.2 kmh 29.89 in1012.2 mb 0.00 in0.0 mm 0.00 in0.0 mm 0.23 in5.8 mm
09:40 AM 54.9°F12.7°C 45.6°F7.6°C 71% 6.3 mph WNW10.1 kmh WNW 9.2 mph14.8 kmh 29.89 in1012.2 mb 0.00 in0.0 mm 0.00 in0.0 mm 0.23 in5.8 mm
09:45 AM 55.4°F13.0°C 46.5°F8.1°C 72% 6.8 mph WNW10.9 kmh WNW 9.2 mph14.8 kmh 29.89 in1012.2 mb 0.00 in0.0 mm 0.00 in0.0 mm 0.23 in5.8 mm
09:50 AM 55.2°F12.9°C 44.9°F7.2°C 68% 6.8 mph WNW10.9 kmh WNW 9.2 mph14.8 kmh 29.89 in1012.2 mb 0.00 in0.0 mm 0.00 in0.0 mm 0.23 in5.8 mm
09:55 AM 56.1°F13.4°C 45.3°F7.4°C 67% 6.0 mph WNW9.7 kmh WNW 8.3 mph13.4 kmh 29.89 in1012.2 mb 0.00 in0.0 mm 0.00 in0.0 mm 0.23 in5.8 mm
10:00 AM 56.1°F13.4°C 45.3°F7.4°C 67% 6.3 mph W10.1 kmh W 9.8 mph15.8 kmh 29.89 in1012.2 mb 0.00 in0.0 mm 0.00 in0.0 mm 0.23 in5.8 mm
10:05 AM 56.3°F13.5°C 45.1°F7.3°C 66% 7.6 mph WNW12.2 kmh WNW 10.7 mph17.2 kmh 29.89 in1012.2 mb 0.00 in0.0 mm 0.00 in0.0 mm 0.23 in5.8 mm
10:10 AM 56.1°F13.4°C 45.3°F7.4°C 67% 7.9 mph WNW12.7 kmh WNW 10.7 mph17.2 kmh 29.89 in1012.2 mb 0.00 in0.0 mm 0.00 in0.0 mm 0.23 in5.8 mm
10:15 AM 56.1°F13.4°C 45.3°F7.4°C 67% 8.7 mph WNW14.0 kmh WNW 12.1 mph19.5 kmh 29.90 in1012.5 mb 0.00 in0.0 mm 0.00 in0.0 mm 0.23 in5.8 mm
10:20 AM 56.8°F13.8°C 46.0°F7.8°C 67% 8.2 mph WNW13.2 kmh WNW 12.1 mph19.5 kmh 29.90 in1012.5 mb 0.00 in0.0 mm 0.00 in0.0 mm 0.23 in5.8 mm
10:25 AM 57.0°F13.9°C 45.4°F7.4°C 65% 7.5 mph WNW12.1 kmh WNW 9.2 mph14.8 kmh 29.90 in1012.5 mb 0.00 in0.0 mm 0.00 in0.0 mm 0.23 in5.8 mm
10:30 AM 57.9°F14.4°C 45.8°F7.7°C 64% 7.1 mph WNW11.4 kmh WNW 9.2 mph14.8 kmh 29.90 in1012.5 mb 0.00 in0.0 mm 0.00 in0.0 mm 0.23 in5.8 mm
10:35 AM 58.3°F14.6°C 44.9°F7.2°C 61% 7.7 mph W12.4 kmh W 15.9 mph25.6 kmh 29.90 in1012.5 mb 0.00 in0.0 mm 0.00 in0.0 mm 0.23 in5.8 mm
10:40 AM 58.5°F14.7°C 44.2°F6.8°C 59% 9.7 mph W15.6 kmh W 15.9 mph25.6 kmh 29.90 in1012.5 mb 0.00 in0.0 mm 0.00 in0.0 mm 0.23 in5.8 mm
10:45 AM 59.5°F15.3°C 46.9°F8.3°C 63% 8.1 mph WSW13.0 kmh WSW 13.0 mph20.9 kmh 29.90 in1012.5 mb 0.00 in0.0 mm 0.00 in0.0 mm 0.23 in5.8 mm
10:50 AM 59.9°F15.5°C 45.6°F7.6°C 59% 6.3 mph WSW10.1 kmh WSW 10.7 mph17.2 kmh 29.90 in1012.5 mb 0.00 in0.0 mm 0.00 in0.0 mm 0.23 in5.8 mm
10:55 AM 59.9°F15.5°C 46.0°F7.8°C 60% 6.8 mph W10.9 kmh W 10.7 mph17.2 kmh 29.90 in1012.5 mb 0.00 in0.0 mm 0.00 in0.0 mm 0.23 in5.8 mm
11:00 AM 58.5°F14.7°C 44.2°F6.8°C 59% 8.8 mph NW14.2 kmh NW 12.1 mph19.5 kmh 29.90 in1012.5 mb 0.00 in0.0 mm 0.00 in0.0 mm 0.23 in5.8 mm
11:05 AM 57.6°F14.2°C 44.2°F6.8°C 61% 9.9 mph WNW15.9 kmh WNW 12.1 mph19.5 kmh 29.90 in1012.5 mb 0.00 in0.0 mm 0.00 in0.0 mm 0.23 in5.8 mm
11:10 AM 57.4°F14.1°C 44.5°F6.9°C 62% 8.6 mph WNW13.8 kmh WNW 12.1 mph19.5 kmh 29.90 in1012.5 mb 0.00 in0.0 mm 0.00 in0.0 mm 0.23 in5.8 mm
11:15 AM 57.9°F14.4°C 44.6°F7.0°C 61% 8.8 mph WNW14.2 kmh WNW 13.6 mph21.9 kmh 29.89 in1012.2 mb 0.00 in0.0 mm 0.00 in0.0 mm 0.23 in5.8 mm
11:20 AM 58.3°F14.6°C 44.5°F6.9°C 60% 10.5 mph WNW16.9 kmh WNW 13.6 mph21.9 kmh 29.90 in1012.5 mb 0.00 in0.0 mm 0.00 in0.0 mm 0.23 in5.8 mm
11:25 AM 58.8°F14.9°C 44.1°F6.7°C 58% 11.4 mph WNW18.3 kmh WNW 17.4 mph28.0 kmh 29.89 in1012.2 mb 0.00 in0.0 mm 0.00 in0.0 mm 0.23 in5.8 mm
11:30 AM 59.4°F15.2°C 45.5°F7.5°C 60% 10.0 mph WNW16.1 kmh WNW 17.4 mph28.0 kmh 29.89 in1012.2 mb 0.00 in0.0 mm 0.00 in0.0 mm 0.23 in5.8 mm
11:35 AM 59.2°F15.1°C 44.4°F6.9°C 58% 9.6 mph WNW15.4 kmh WNW 13.0 mph20.9 kmh 29.89 in1012.2 mb 0.00 in0.0 mm 0.00 in0.0 mm 0.23 in5.8 mm
11:40 AM 58.8°F14.9°C 44.5°F6.9°C 59% 10.4 mph W16.7 kmh W 15.9 mph25.6 kmh 29.89 in1012.2 mb 0.00 in0.0 mm 0.00 in0.0 mm 0.23 in5.8 mm
11:45 AM 59.4°F15.2°C 45.0°F7.2°C 59% 9.2 mph WSW14.8 kmh WSW 15.9 mph25.6 kmh 29.89 in1012.2 mb 0.00 in0.0 mm 0.00 in0.0 mm 0.23 in5.8 mm
11:50 AM 59.7°F15.4°C 44.9°F7.2°C 58% 8.4 mph WNW13.5 kmh WNW 11.4 mph18.3 kmh 29.90 in1012.5 mb 0.00 in0.0 mm 0.00 in0.0 mm 0.23 in5.8 mm
11:55 AM 58.3°F14.6°C 43.6°F6.4°C 58% 9.3 mph WNW15.0 kmh WNW 12.1 mph19.5 kmh 29.89 in1012.2 mb 0.00 in0.0 mm 0.00 in0.0 mm 0.23 in5.8 mm
12:00 PM 58.1°F14.5°C 43.9°F6.6°C 59% 9.9 mph W15.9 kmh W 12.1 mph19.5 kmh 29.89 in1012.2 mb 0.00 in0.0 mm 0.00 in0.0 mm 0.23 in5.8 mm
12:05 PM 59.0°F15.0°C 44.7°F7.1°C 59% 9.3 mph W15.0 kmh W 19.0 mph30.6 kmh 29.89 in1012.2 mb 0.00 in0.0 mm 0.00 in0.0 mm 0.23 in5.8 mm
12:10 PM 60.1°F15.6°C 45.3°F7.4°C 58% 9.5 mph NW15.3 kmh NW 19.0 mph30.6 kmh 29.89 in1012.2 mb 0.00 in0.0 mm 0.00 in0.0 mm 0.23 in5.8 mm
12:15 PM 60.1°F15.6°C 44.3°F6.8°C 56% 10.4 mph WNW16.7 kmh WNW 16.8 mph27.0 kmh 29.89 in1012.2 mb 0.00 in0.0 mm 0.00 in0.0 mm 0.23 in5.8 mm
12:20 PM 58.8°F14.9°C 43.6°F6.4°C 57% 9.3 mph W15.0 kmh W 16.8 mph27.0 kmh 29.90 in1012.5 mb 0.00 in0.0 mm 0.00 in0.0 mm 0.23 in5.8 mm
12:25 PM 58.8°F14.9°C 44.1°F6.7°C 58% 7.3 mph W11.7 kmh W 13.0 mph20.9 kmh 29.90 in1012.5 mb 0.00 in0.0 mm 0.00 in0.0 mm 0.23 in5.8 mm
12:30 PM 58.6°F14.8°C 44.4°F6.9°C 59% 7.0 mph W11.3 kmh W 9.8 mph15.8 kmh 29.89 in1012.2 mb 0.00 in0.0 mm 0.00 in0.0 mm 0.23 in5.8 mm
12:35 PM 58.3°F14.6°C 44.0°F6.7°C 59% 6.3 mph WSW10.1 kmh WSW 9.8 mph15.8 kmh 29.89 in1012.2 mb 0.00 in0.0 mm 0.00 in0.0 mm 0.23 in5.8 mm
12:40 PM 59.5°F15.3°C 44.8°F7.1°C 58% 6.8 mph WSW10.9 kmh WSW 11.4 mph18.3 kmh 29.89 in1012.2 mb 0.00 in0.0 mm 0.00 in0.0 mm 0.23 in5.8 mm
12:45 PM 59.4°F15.2°C 44.6°F7.0°C 58% 8.4 mph W13.5 kmh W 13.6 mph21.9 kmh 29.90 in1012.5 mb 0.00 in0.0 mm 0.00 in0.0 mm 0.23 in5.8 mm
12:50 PM 60.1°F15.6°C 45.3°F7.4°C 58% 7.6 mph WSW12.2 kmh WSW 13.6 mph21.9 kmh 29.90 in1012.5 mb 0.00 in0.0 mm 0.00 in0.0 mm 0.23 in5.8 mm
12:55 PM 60.8°F16.0°C 44.5°F6.9°C 55% 9.5 mph WSW15.3 kmh WSW 16.8 mph27.0 kmh 29.89 in1012.2 mb 0.00 in0.0 mm 0.00 in0.0 mm 0.23 in5.8 mm
01:00 PM 60.6°F15.9°C 45.3°F7.4°C 57% 8.7 mph W14.0 kmh W 16.8 mph27.0 kmh 29.89 in1012.2 mb 0.00 in0.0 mm 0.00 in0.0 mm 0.23 in5.8 mm
01:05 PM 59.9°F15.5°C 44.6°F7.0°C 57% 4.7 mph W7.6 kmh W 8.3 mph13.4 kmh 29.89 in1012.2 mb 0.00 in0.0 mm 0.00 in0.0 mm 0.23 in5.8 mm
01:10 PM 59.9°F15.5°C 44.6°F7.0°C 57% 6.1 mph W9.8 kmh W 9.2 mph14.8 kmh 29.89 in1012.2 mb 0.00 in0.0 mm 0.00 in0.0 mm 0.23 in5.8 mm
01:15 PM 59.2°F15.1°C 44.0°F6.7°C 57% 8.0 mph W12.9 kmh W 10.7 mph17.2 kmh 29.89 in1012.2 mb 0.00 in0.0 mm 0.00 in0.0 mm 0.23 in5.8 mm
01:20 PM 58.1°F14.5°C 43.4°F6.3°C 58% 9.1 mph W14.6 kmh W 11.4 mph18.3 kmh 29.89 in1012.2 mb 0.00 in0.0 mm 0.00 in0.0 mm 0.23 in5.8 mm
01:25 PM 57.7°F14.3°C 44.0°F6.7°C 60% 8.7 mph W14.0 kmh W 11.4 mph18.3 kmh 29.89 in1012.2 mb 0.00 in0.0 mm 0.00 in0.0 mm 0.23 in5.8 mm
01:30 PM 58.5°F14.7°C 44.2°F6.8°C 59% 7.5 mph W12.1 kmh W 10.7 mph17.2 kmh 29.89 in1012.2 mb 0.00 in0.0 mm 0.00 in0.0 mm 0.23 in5.8 mm
01:35 PM 58.6°F14.8°C 43.9°F6.6°C 58% 8.5 mph WNW13.7 kmh WNW 17.4 mph28.0 kmh 29.89 in1012.2 mb 0.00 in0.0 mm 0.00 in0.0 mm 0.23 in5.8 mm
01:40 PM 59.0°F15.0°C 44.3°F6.8°C 58% 8.9 mph WNW14.3 kmh WNW 17.4 mph28.0 kmh 29.89 in1012.2 mb 0.00 in0.0 mm 0.00 in0.0 mm 0.23 in5.8 mm
01:45 PM 59.5°F15.3°C 43.8°F6.6°C 56% 9.4 mph W15.1 kmh W 17.4 mph28.0 kmh 29.89 in1012.2 mb 0.00 in0.0 mm 0.00 in0.0 mm 0.23 in5.8 mm
01:50 PM 59.0°F15.0°C 43.3°F6.3°C 56% 9.6 mph WNW15.4 kmh WNW 14.5 mph23.3 kmh 29.89 in1012.2 mb 0.00 in0.0 mm 0.00 in0.0 mm 0.23 in5.8 mm
01:55 PM 58.6°F14.8°C 43.0°F6.1°C 56% 9.9 mph WNW15.9 kmh WNW 14.5 mph23.3 kmh 29.89 in1012.2 mb 0.00 in0.0 mm 0.00 in0.0 mm 0.23 in5.8 mm
02:00 PM 57.9°F14.4°C 42.8°F6.0°C 57% 8.5 mph WNW13.7 kmh WNW 14.5 mph23.3 kmh 29.89 in1012.2 mb 0.00 in0.0 mm 0.00 in0.0 mm 0.23 in5.8 mm
02:05 PM 58.3°F14.6°C 43.6°F6.4°C 58% 6.1 mph W9.8 kmh W 9.2 mph14.8 kmh 29.89 in1012.2 mb 0.00 in0.0 mm 0.00 in0.0 mm 0.23 in5.8 mm
02:10 PM 59.4°F15.2°C 44.6°F7.0°C 58% 5.0 mph WNW8.0 kmh WNW 9.2 mph14.8 kmh 29.89 in1012.2 mb 0.00 in0.0 mm 0.00 in0.0 mm 0.23 in5.8 mm
02:15 PM 60.4°F15.8°C 44.7°F7.1°C 56% 8.4 mph WNW13.5 kmh WNW 16.8 mph27.0 kmh 29.89 in1012.2 mb 0.00 in0.0 mm 0.00 in0.0 mm 0.23 in5.8 mm
02:20 PM 59.7°F15.4°C 44.0°F6.7°C 56% 11.1 mph WNW17.9 kmh WNW 16.8 mph27.0 kmh 29.89 in1012.2 mb 0.00 in0.0 mm 0.00 in0.0 mm 0.23 in5.8 mm
02:25 PM 59.2°F15.1°C 44.0°F6.7°C 57% 9.8 mph WNW15.8 kmh WNW 13.6 mph21.9 kmh 29.89 in1012.2 mb 0.00 in0.0 mm 0.00 in0.0 mm 0.23 in5.8 mm
02:30 PM 58.6°F14.8°C 43.9°F6.6°C 58% 9.6 mph NW15.4 kmh NW 12.1 mph19.5 kmh 29.89 in1012.2 mb 0.00 in0.0 mm 0.00 in0.0 mm 0.23 in5.8 mm
02:35 PM 58.1°F14.5°C 43.4°F6.3°C 58% 9.0 mph WNW14.5 kmh WNW 12.1 mph19.5 kmh 29.89 in1012.2 mb 0.00 in0.0 mm 0.00 in0.0 mm 0.23 in5.8 mm
02:40 PM 58.5°F14.7°C 43.7°F6.5°C 58% 8.8 mph WNW14.2 kmh WNW 12.1 mph19.5 kmh 29.89 in1012.2 mb 0.00 in0.0 mm 0.00 in0.0 mm 0.23 in5.8 mm
02:45 PM 59.5°F15.3°C 44.8°F7.1°C 58% 9.3 mph NW15.0 kmh NW 12.1 mph19.5 kmh 29.88 in1011.9 mb 0.00 in0.0 mm 0.00 in0.0 mm 0.23 in5.8 mm
02:50 PM 60.8°F16.0°C 44.5°F6.9°C 55% 9.9 mph W15.9 kmh W 13.0 mph20.9 kmh 29.89 in1012.2 mb 0.00 in0.0 mm 0.00 in0.0 mm 0.23 in5.8 mm
02:55 PM 60.1°F15.6°C 43.9°F6.6°C 55% 9.7 mph W15.6 kmh W 13.0 mph20.9 kmh 29.89 in1012.2 mb 0.00 in0.0 mm 0.00 in0.0 mm 0.23 in5.8 mm
03:00 PM 59.2°F15.1°C 43.5°F6.4°C 56% 8.9 mph W14.3 kmh W 11.4 mph18.3 kmh 29.89 in1012.2 mb 0.00 in0.0 mm 0.00 in0.0 mm 0.23 in5.8 mm
03:05 PM 58.6°F14.8°C 43.5°F6.4°C 57% 8.1 mph WNW13.0 kmh WNW 11.4 mph18.3 kmh 29.89 in1012.2 mb 0.00 in0.0 mm 0.00 in0.0 mm 0.23 in5.8 mm
03:10 PM 58.3°F14.6°C 43.6°F6.4°C 58% 7.8 mph WNW12.6 kmh WNW 11.4 mph18.3 kmh 29.88 in1011.9 mb 0.00 in0.0 mm 0.00 in0.0 mm 0.23 in5.8 mm
03:15 PM 58.1°F14.5°C 43.0°F6.1°C 57% 7.3 mph W11.7 kmh W 11.4 mph18.3 kmh 29.88 in1011.9 mb 0.00 in0.0 mm 0.00 in0.0 mm 0.23 in5.8 mm
03:20 PM 58.1°F14.5°C 43.4°F6.3°C 58% 7.1 mph WNW11.4 kmh WNW 11.4 mph18.3 kmh 29.89 in1012.2 mb 0.00 in0.0 mm 0.00 in0.0 mm 0.23 in5.8 mm
03:25 PM 58.1°F14.5°C 43.4°F6.3°C 58% 6.1 mph WNW9.8 kmh WNW 11.4 mph18.3 kmh 29.89 in1012.2 mb 0.00 in0.0 mm 0.00 in0.0 mm 0.23 in5.8 mm
03:30 PM 58.1°F14.5°C 43.4°F6.3°C 58% 4.6 mph W7.4 kmh W 9.2 mph14.8 kmh 29.89 in1012.2 mb 0.00 in0.0 mm 0.00 in0.0 mm 0.23 in5.8 mm
03:35 PM 58.1°F14.5°C 43.9°F6.6°C 59% 4.4 mph W7.1 kmh W 8.3 mph13.4 kmh 29.89 in1012.2 mb 0.00 in0.0 mm 0.00 in0.0 mm 0.23 in5.8 mm
03:40 PM 58.3°F14.6°C 43.6°F6.4°C 58% 4.2 mph W6.8 kmh W 7.6 mph12.2 kmh 29.89 in1012.2 mb 0.00 in0.0 mm 0.00 in0.0 mm 0.23 in5.8 mm
03:45 PM 58.1°F14.5°C 43.4°F6.3°C 58% 4.7 mph W7.6 kmh W 8.3 mph13.4 kmh 29.89 in1012.2 mb 0.00 in0.0 mm 0.00 in0.0 mm 0.23 in5.8 mm
03:50 PM 57.9°F14.4°C 42.8°F6.0°C 57% 5.3 mph W8.5 kmh W 8.3 mph13.4 kmh 29.88 in1011.9 mb 0.00 in0.0 mm 0.00 in0.0 mm 0.23 in5.8 mm
03:55 PM 57.9°F14.4°C 43.2°F6.2°C 58% 5.1 mph W8.2 kmh W 8.3 mph13.4 kmh 29.88 in1011.9 mb 0.00 in0.0 mm 0.00 in0.0 mm 0.23 in5.8 mm
04:00 PM 58.1°F14.5°C 43.4°F6.3°C 58% 4.7 mph W7.6 kmh W 6.9 mph11.1 kmh 29.88 in1011.9 mb 0.00 in0.0 mm 0.00 in0.0 mm 0.23 in5.8 mm
04:05 PM 59.4°F15.2°C 44.6°F7.0°C 58% 4.8 mph W7.7 kmh W 6.9 mph11.1 kmh 29.88 in1011.9 mb 0.00 in0.0 mm 0.00 in0.0 mm 0.23 in5.8 mm
04:10 PM 60.8°F16.0°C 45.5°F7.5°C 57% 4.7 mph W7.6 kmh W 8.3 mph13.4 kmh 29.88 in1011.9 mb 0.00 in0.0 mm 0.00 in0.0 mm 0.23 in5.8 mm
04:15 PM 61.9°F16.6°C 46.5°F8.1°C 57% 4.2 mph W6.8 kmh W 8.3 mph13.4 kmh 29.89 in1012.2 mb 0.00 in0.0 mm 0.00 in0.0 mm 0.23 in5.8 mm
04:20 PM 62.1°F16.7°C 45.7°F7.6°C 55% 4.9 mph W7.9 kmh W 9.2 mph14.8 kmh 29.89 in1012.2 mb 0.00 in0.0 mm 0.00 in0.0 mm 0.23 in5.8 mm
04:25 PM 62.2°F16.8°C 44.9°F7.2°C 53% 5.2 mph W8.4 kmh W 9.2 mph14.8 kmh 29.89 in1012.2 mb 0.00 in0.0 mm 0.00 in0.0 mm 0.23 in5.8 mm
04:30 PM 62.1°F16.7°C 45.2°F7.3°C 54% 4.7 mph W7.6 kmh W 6.9 mph11.1 kmh 29.88 in1011.9 mb 0.00 in0.0 mm 0.00 in0.0 mm 0.23 in5.8 mm
04:35 PM 61.7°F16.5°C 44.9°F7.2°C 54% 4.3 mph W6.9 kmh W 7.6 mph12.2 kmh 29.89 in1012.2 mb 0.00 in0.0 mm 0.00 in0.0 mm 0.23 in5.8 mm
04:40 PM 59.9°F15.5°C 43.7°F6.5°C 55% 4.3 mph WSW6.9 kmh WSW 7.6 mph12.2 kmh 29.89 in1012.2 mb 0.00 in0.0 mm 0.00 in0.0 mm 0.23 in5.8 mm
04:45 PM 59.4°F15.2°C 43.7°F6.5°C 56% 4.7 mph WSW7.6 kmh WSW 7.6 mph12.2 kmh 29.89 in1012.2 mb 0.00 in0.0 mm 0.00 in0.0 mm 0.23 in5.8 mm
04:50 PM 59.5°F15.3°C 44.3°F6.8°C 57% 4.5 mph W7.2 kmh W 5.4 mph8.7 kmh 29.89 in1012.2 mb 0.00 in0.0 mm 0.00 in0.0 mm 0.23 in5.8 mm
04:55 PM 59.0°F15.0°C 43.8°F6.6°C 57% 4.0 mph W6.4 kmh W 5.4 mph8.7 kmh 29.89 in1012.2 mb 0.00 in0.0 mm 0.00 in0.0 mm 0.23 in5.8 mm
05:00 PM 58.5°F14.7°C 43.7°F6.5°C 58% 4.6 mph W7.4 kmh W 7.6 mph12.2 kmh 29.89 in1012.2 mb 0.00 in0.0 mm 0.00 in0.0 mm 0.23 in5.8 mm
05:05 PM 58.1°F14.5°C 43.9°F6.6°C 59% 4.5 mph W7.2 kmh W 7.6 mph12.2 kmh 29.90 in1012.5 mb 0.00 in0.0 mm 0.00 in0.0 mm 0.23 in5.8 mm
05:10 PM 57.9°F14.4°C 43.7°F6.5°C 59% 4.3 mph W6.9 kmh W 8.3 mph13.4 kmh 29.90 in1012.5 mb 0.00 in0.0 mm 0.00 in0.0 mm 0.23 in5.8 mm
05:15 PM 57.4°F14.1°C 43.6°F6.4°C 60% 5.1 mph W8.2 kmh W 8.3 mph13.4 kmh 29.90 in1012.5 mb 0.00 in0.0 mm 0.00 in0.0 mm 0.23 in5.8 mm
05:20 PM 57.0°F13.9°C 43.7°F6.5°C 61% 4.5 mph W7.2 kmh W 6.0 mph9.7 kmh 29.90 in1012.5 mb 0.00 in0.0 mm 0.00 in0.0 mm 0.23 in5.8 mm
05:25 PM 57.0°F13.9°C 43.7°F6.5°C 61% 4.1 mph W6.6 kmh W 6.0 mph9.7 kmh 29.90 in1012.5 mb 0.00 in0.0 mm 0.00 in0.0 mm 0.23 in5.8 mm
05:30 PM 56.8°F13.8°C 43.5°F6.4°C 61% 4.0 mph W6.4 kmh W 6.0 mph9.7 kmh 29.90 in1012.5 mb 0.00 in0.0 mm 0.00 in0.0 mm 0.23 in5.8 mm
05:35 PM 56.8°F13.8°C 44.0°F6.7°C 62% 3.9 mph WNW6.3 kmh WNW 5.4 mph8.7 kmh 29.90 in1012.5 mb 0.00 in0.0 mm 0.00 in0.0 mm 0.23 in5.8 mm
05:40 PM 56.7°F13.7°C 43.8°F6.6°C 62% 3.7 mph W6.0 kmh W 4.5 mph7.2 kmh 29.90 in1012.5 mb 0.00 in0.0 mm 0.00 in0.0 mm 0.23 in5.8 mm
05:45 PM 56.5°F13.6°C 44.0°F6.7°C 63% 3.5 mph W5.6 kmh W 4.5 mph7.2 kmh 29.90 in1012.5 mb 0.00 in0.0 mm 0.00 in0.0 mm 0.23 in5.8 mm
05:50 PM 55.9°F13.3°C 43.5°F6.4°C 63% 3.8 mph W6.1 kmh W 6.0 mph9.7 kmh 29.90 in1012.5 mb 0.00 in0.0 mm 0.00 in0.0 mm 0.23 in5.8 mm
05:55 PM 55.8°F13.2°C 43.8°F6.6°C 64% 3.8 mph W6.1 kmh W 6.0 mph9.7 kmh 29.91 in1012.9 mb 0.00 in0.0 mm 0.00 in0.0 mm 0.23 in5.8 mm
06:00 PM 55.6°F13.1°C 43.6°F6.4°C 64% 2.9 mph W4.7 kmh W 4.5 mph7.2 kmh 29.91 in1012.9 mb 0.00 in0.0 mm 0.00 in0.0 mm 0.23 in5.8 mm
06:05 PM 55.2°F12.9°C 43.7°F6.5°C 65% 2.5 mph WSW4.0 kmh WSW 3.8 mph6.1 kmh 29.91 in1012.9 mb 0.00 in0.0 mm 0.00 in0.0 mm 0.23 in5.8 mm
06:10 PM 55.4°F13.0°C 43.8°F6.6°C 65% 2.7 mph W4.3 kmh W 3.8 mph6.1 kmh 29.91 in1012.9 mb 0.00 in0.0 mm 0.00 in0.0 mm 0.23 in5.8 mm
06:15 PM 55.2°F12.9°C 44.1°F6.7°C 66% 3.5 mph W5.6 kmh W 5.4 mph8.7 kmh 29.91 in1012.9 mb 0.00 in0.0 mm 0.00 in0.0 mm 0.23 in5.8 mm
06:20 PM 55.0°F12.8°C 44.3°F6.8°C 67% 4.3 mph W6.9 kmh W 5.4 mph8.7 kmh 29.92 in1013.2 mb 0.00 in0.0 mm 0.00 in0.0 mm 0.23 in5.8 mm
06:25 PM 54.9°F12.7°C 44.5°F6.9°C 68% 4.8 mph WNW7.7 kmh WNW 6.0 mph9.7 kmh 29.92 in1013.2 mb 0.00 in0.0 mm 0.00 in0.0 mm 0.23 in5.8 mm
06:30 PM 54.7°F12.6°C 44.3°F6.8°C 68% 5.4 mph WNW8.7 kmh WNW 6.0 mph9.7 kmh 29.92 in1013.2 mb 0.00 in0.0 mm 0.00 in0.0 mm 0.23 in5.8 mm
06:35 PM 54.5°F12.5°C 44.5°F6.9°C 69% 4.7 mph WNW7.6 kmh WNW 6.0 mph9.7 kmh 29.92 in1013.2 mb 0.00 in0.0 mm 0.00 in0.0 mm 0.23 in5.8 mm
06:40 PM 54.7°F12.6°C 44.7°F7.1°C 69% 3.7 mph W6.0 kmh W 5.4 mph8.7 kmh 29.92 in1013.2 mb 0.00 in0.0 mm 0.00 in0.0 mm 0.23 in5.8 mm
06:45 PM 54.5°F12.5°C 44.5°F6.9°C 69% 4.0 mph W6.4 kmh W 6.0 mph9.7 kmh 29.92 in1013.2 mb 0.00 in0.0 mm 0.00 in0.0 mm 0.23 in5.8 mm
06:50 PM 54.5°F12.5°C 44.5°F6.9°C 69% 4.1 mph W6.6 kmh W 6.0 mph9.7 kmh 29.93 in1013.5 mb 0.00 in0.0 mm 0.00 in0.0 mm 0.23 in5.8 mm
06:55 PM 54.3°F12.4°C 44.0°F6.7°C 68% 4.0 mph W6.4 kmh W 6.9 mph11.1 kmh 29.93 in1013.5 mb 0.00 in0.0 mm 0.00 in0.0 mm 0.23 in5.8 mm
07:00 PM 54.3°F12.4°C 44.0°F6.7°C 68% 3.9 mph W6.3 kmh W 6.9 mph11.1 kmh 29.93 in1013.5 mb 0.00 in0.0 mm 0.00 in0.0 mm 0.23 in5.8 mm
07:05 PM 54.5°F12.5°C 44.2°F6.8°C 68% 2.5 mph W4.0 kmh W 5.4 mph8.7 kmh 29.93 in1013.5 mb 0.00 in0.0 mm 0.00 in0.0 mm 0.23 in5.8 mm
07:10 PM 54.5°F12.5°C 44.5°F6.9°C 69% 1.6 mph W2.6 kmh W 3.1 mph5.0 kmh 29.93 in1013.5 mb 0.00 in0.0 mm 0.00 in0.0 mm 0.23 in5.8 mm
07:15 PM 54.5°F12.5°C 44.5°F6.9°C 69% 1.3 mph WSW2.1 kmh WSW 3.1 mph5.0 kmh 29.93 in1013.5 mb 0.00 in0.0 mm 0.00 in0.0 mm 0.23 in5.8 mm
07:20 PM 54.3°F12.4°C 44.8°F7.1°C 70% 1.3 mph SW2.1 kmh SW 3.1 mph5.0 kmh 29.93 in1013.5 mb 0.00 in0.0 mm 0.00 in0.0 mm 0.23 in5.8 mm
07:25 PM 54.3°F12.4°C 45.1°F7.3°C 71% 1.0 mph SSW1.6 kmh SSW 3.1 mph5.0 kmh 29.93 in1013.5 mb 0.00 in0.0 mm 0.00 in0.0 mm 0.23 in5.8 mm
07:30 PM 54.1°F12.3°C 45.0°F7.2°C 71% 0.8 mph S1.3 kmh S 2.2 mph3.5 kmh 29.93 in1013.5 mb 0.00 in0.0 mm 0.00 in0.0 mm 0.23 in5.8 mm
07:35 PM 54.0°F12.2°C 45.1°F7.3°C 72% 0.6 mph S1.0 kmh S 2.2 mph3.5 kmh 29.93 in1013.5 mb 0.00 in0.0 mm 0.00 in0.0 mm 0.23 in5.8 mm
07:40 PM 54.0°F12.2°C 45.1°F7.3°C 72% 0.3 mph S0.5 kmh S 0.7 mph1.1 kmh 29.93 in1013.5 mb 0.00 in0.0 mm 0.00 in0.0 mm 0.23 in5.8 mm
07:45 PM 53.8°F12.1°C 45.0°F7.2°C 72% 0.2 mph WSW0.3 kmh WSW 1.6 mph2.6 kmh 29.94 in1013.9 mb 0.00 in0.0 mm 0.00 in0.0 mm 0.23 in5.8 mm
07:50 PM 53.8°F12.1°C 45.0°F7.2°C 72% 0.4 mph W0.6 kmh W 1.6 mph2.6 kmh 29.94 in1013.9 mb 0.00 in0.0 mm 0.00 in0.0 mm 0.23 in5.8 mm
07:55 PM 53.8°F12.1°C 45.0°F7.2°C 72% 0.8 mph W1.3 kmh W 2.2 mph3.5 kmh 29.94 in1013.9 mb 0.00 in0.0 mm 0.00 in0.0 mm 0.23 in5.8 mm
08:00 PM 53.8°F12.1°C 44.6°F7.0°C 71% 1.7 mph WNW2.7 kmh WNW 3.8 mph6.1 kmh 29.95 in1014.2 mb 0.00 in0.0 mm 0.00 in0.0 mm 0.23 in5.8 mm
08:05 PM 53.8°F12.1°C 44.6°F7.0°C 71% 2.4 mph NW3.9 kmh NW 3.8 mph6.1 kmh 29.94 in1013.9 mb 0.00 in0.0 mm 0.00 in0.0 mm 0.23 in5.8 mm
08:10 PM 53.8°F12.1°C 44.6°F7.0°C 71% 2.8 mph WNW4.5 kmh WNW 4.5 mph7.2 kmh 29.94 in1013.9 mb 0.00 in0.0 mm 0.00 in0.0 mm 0.23 in5.8 mm
08:15 PM 53.4°F11.9°C 44.6°F7.0°C 72% 3.8 mph WNW6.1 kmh WNW 6.0 mph9.7 kmh 29.94 in1013.9 mb 0.00 in0.0 mm 0.00 in0.0 mm 0.23 in5.8 mm
08:20 PM 53.4°F11.9°C 44.6°F7.0°C 72% 4.3 mph NW6.9 kmh NW 6.0 mph9.7 kmh 29.95 in1014.2 mb 0.00 in0.0 mm 0.00 in0.0 mm 0.23 in5.8 mm
08:25 PM 53.4°F11.9°C 44.6°F7.0°C 72% 3.8 mph WNW6.1 kmh WNW 5.4 mph8.7 kmh 29.95 in1014.2 mb 0.00 in0.0 mm 0.00 in0.0 mm 0.23 in5.8 mm
08:30 PM 53.4°F11.9°C 45.0°F7.2°C 73% 2.5 mph W4.0 kmh W 4.5 mph7.2 kmh 29.95 in1014.2 mb 0.00 in0.0 mm 0.00 in0.0 mm 0.23 in5.8 mm
08:35 PM 53.2°F11.8°C 44.8°F7.1°C 73% 1.7 mph W2.7 kmh W 3.1 mph5.0 kmh 29.95 in1014.2 mb 0.00 in0.0 mm 0.00 in0.0 mm 0.23 in5.8 mm
08:40 PM 53.1°F11.7°C 45.0°F7.2°C 74% 1.5 mph WNW2.4 kmh WNW 2.2 mph3.5 kmh 29.95 in1014.2 mb 0.00 in0.0 mm 0.00 in0.0 mm 0.23 in5.8 mm
08:45 PM 53.1°F11.7°C 45.0°F7.2°C 74% 1.1 mph SW1.8 kmh SW 2.2 mph3.5 kmh 29.95 in1014.2 mb 0.00 in0.0 mm 0.00 in0.0 mm 0.23 in5.8 mm
08:50 PM 52.9°F11.6°C 45.2°F7.3°C 75% 2.5 mph WSW4.0 kmh WSW 6.9 mph11.1 kmh 29.95 in1014.2 mb 0.00 in0.0 mm 0.00 in0.0 mm 0.23 in5.8 mm
08:55 PM 52.7°F11.5°C 45.4°F7.4°C 76% 4.4 mph W7.1 kmh W 7.6 mph12.2 kmh 29.96 in1014.6 mb 0.00 in0.0 mm 0.00 in0.0 mm 0.23 in5.8 mm
09:00 PM 52.3°F11.3°C 46.0°F7.8°C 79% 4.9 mph WSW7.9 kmh WSW 7.6 mph12.2 kmh 29.96 in1014.6 mb 0.00 in0.0 mm 0.00 in0.0 mm 0.23 in5.8 mm
09:05 PM 52.2°F11.2°C 46.2°F7.9°C 80% 3.7 mph WSW6.0 kmh WSW 6.9 mph11.1 kmh 29.96 in1014.6 mb 0.00 in0.0 mm 0.00 in0.0 mm 0.23 in5.8 mm
09:10 PM 52.0°F11.1°C 46.3°F7.9°C 81% 2.8 mph SW4.5 kmh SW 6.0 mph9.7 kmh 29.95 in1014.2 mb 0.00 in0.0 mm 0.00 in0.0 mm 0.23 in5.8 mm
09:15 PM 51.8°F11.0°C 46.5°F8.1°C 82% 2.4 mph SW3.9 kmh SW 6.0 mph9.7 kmh 29.95 in1014.2 mb 0.00 in0.0 mm 0.00 in0.0 mm 0.23 in5.8 mm
09:20 PM 52.0°F11.1°C 47.0°F8.3°C 83% 1.8 mph WSW2.9 kmh WSW 3.1 mph5.0 kmh 29.95 in1014.2 mb 0.00 in0.0 mm 0.00 in0.0 mm 0.23 in5.8 mm
09:25 PM 51.8°F11.0°C 46.8°F8.2°C 83% 1.8 mph WSW2.9 kmh WSW 2.2 mph3.5 kmh 29.95 in1014.2 mb 0.00 in0.0 mm 0.00 in0.0 mm 0.23 in5.8 mm
09:30 PM 51.3°F10.7°C 46.6°F8.1°C 84% 2.5 mph WNW4.0 kmh WNW 3.8 mph6.1 kmh 29.95 in1014.2 mb 0.00 in0.0 mm 0.00 in0.0 mm 0.23 in5.8 mm
09:35 PM 50.9°F10.5°C 46.2°F7.9°C 84% 3.5 mph NW5.6 kmh NW 4.5 mph7.2 kmh 29.95 in1014.2 mb 0.00 in0.0 mm 0.00 in0.0 mm 0.23 in5.8 mm
09:40 PM 50.9°F10.5°C 46.6°F8.1°C 85% 3.3 mph NW5.3 kmh NW 4.5 mph7.2 kmh 29.95 in1014.2 mb 0.00 in0.0 mm 0.00 in0.0 mm 0.23 in5.8 mm
09:45 PM 50.9°F10.5°C 46.6°F8.1°C 85% 1.8 mph W2.9 kmh W 3.8 mph6.1 kmh 29.95 in1014.2 mb 0.00 in0.0 mm 0.00 in0.0 mm 0.23 in5.8 mm
09:50 PM 50.9°F10.5°C 46.6°F8.1°C 85% 0.5 mph SW0.8 kmh SW 2.2 mph3.5 kmh 29.94 in1013.9 mb 0.00 in0.0 mm 0.00 in0.0 mm 0.23 in5.8 mm
09:55 PM 50.9°F10.5°C 46.6°F8.1°C 85% 0.3 mph SW0.5 kmh SW 1.6 mph2.6 kmh 29.95 in1014.2 mb 0.00 in0.0 mm 0.00 in0.0 mm 0.23 in5.8 mm
10:00 PM 50.9°F10.5°C 46.9°F8.3°C 86% 1.2 mph WSW1.9 kmh WSW 2.2 mph3.5 kmh 29.95 in1014.2 mb 0.00 in0.0 mm 0.00 in0.0 mm 0.23 in5.8 mm
10:05 PM 51.1°F10.6°C 47.0°F8.3°C 86% 1.8 mph W2.9 kmh W 2.2 mph3.5 kmh 29.95 in1014.2 mb 0.00 in0.0 mm 0.00 in0.0 mm 0.23 in5.8 mm
10:10 PM 51.1°F10.6°C 47.0°F8.3°C 86% 1.8 mph W2.9 kmh W 2.2 mph3.5 kmh 29.95 in1014.2 mb 0.00 in0.0 mm 0.00 in0.0 mm 0.23 in5.8 mm
10:15 PM 51.1°F10.6°C 47.0°F8.3°C 86% 1.7 mph W2.7 kmh W 2.2 mph3.5 kmh 29.95 in1014.2 mb 0.00 in0.0 mm 0.00 in0.0 mm 0.23 in5.8 mm
10:20 PM 50.9°F10.5°C 46.9°F8.3°C 86% 1.8 mph W2.9 kmh W 2.2 mph3.5 kmh 29.95 in1014.2 mb 0.00 in0.0 mm 0.00 in0.0 mm 0.23 in5.8 mm
10:25 PM 51.1°F10.6°C 47.0°F8.3°C 86% 1.9 mph W3.1 kmh W 2.2 mph3.5 kmh 29.95 in1014.2 mb 0.00 in0.0 mm 0.00 in0.0 mm 0.23 in5.8 mm
10:30 PM 51.1°F10.6°C 47.0°F8.3°C 86% 1.5 mph WSW2.4 kmh WSW 2.2 mph3.5 kmh 29.95 in1014.2 mb 0.00 in0.0 mm 0.00 in0.0 mm 0.23 in5.8 mm
10:35 PM 51.1°F10.6°C 47.0°F8.3°C 86% 1.4 mph WSW2.3 kmh WSW 2.2 mph3.5 kmh 29.95 in1014.2 mb 0.00 in0.0 mm 0.00 in0.0 mm 0.23 in5.8 mm
10:40 PM 51.1°F10.6°C 47.4°F8.6°C 87% 1.1 mph WSW1.8 kmh WSW 2.2 mph3.5 kmh 29.95 in1014.2 mb 0.00 in0.0 mm 0.00 in0.0 mm 0.23 in5.8 mm
10:45 PM 51.1°F10.6°C 47.4°F8.6°C 87% 0.5 mph SW0.8 kmh SW 1.6 mph2.6 kmh 29.95 in1014.2 mb 0.00 in0.0 mm 0.00 in0.0 mm 0.23 in5.8 mm
10:50 PM 51.1°F10.6°C 47.4°F8.6°C 87% 0.6 mph WSW1.0 kmh WSW 1.6 mph2.6 kmh 29.95 in1014.2 mb 0.00 in0.0 mm 0.00 in0.0 mm 0.23 in5.8 mm
10:55 PM 51.1°F10.6°C 47.4°F8.6°C 87% 0.9 mph WNW1.4 kmh WNW 2.2 mph3.5 kmh 29.95 in1014.2 mb 0.00 in0.0 mm 0.00 in0.0 mm 0.23 in5.8 mm
11:00 PM 51.1°F10.6°C 47.0°F8.3°C 86% 1.3 mph WNW2.1 kmh WNW 2.2 mph3.5 kmh 29.94 in1013.9 mb 0.00 in0.0 mm 0.00 in0.0 mm 0.23 in5.8 mm
11:05 PM 51.1°F10.6°C 47.0°F8.3°C 86% 1.7 mph W2.7 kmh W 2.2 mph3.5 kmh 29.94 in1013.9 mb 0.00 in0.0 mm 0.00 in0.0 mm 0.23 in5.8 mm
11:10 PM 51.3°F10.7°C 47.2°F8.4°C 86% 1.5 mph W2.4 kmh W 2.2 mph3.5 kmh 29.94 in1013.9 mb 0.00 in0.0 mm 0.00 in0.0 mm 0.23 in5.8 mm
11:15 PM 51.3°F10.7°C 47.2°F8.4°C 86% 0.8 mph W1.3 kmh W 2.2 mph3.5 kmh 29.95 in1014.2 mb 0.00 in0.0 mm 0.00 in0.0 mm 0.23 in5.8 mm
11:20 PM 51.3°F10.7°C 47.2°F8.4°C 86% 0.2 mph SW0.3 kmh SW 0.7 mph1.1 kmh 29.94 in1013.9 mb 0.00 in0.0 mm 0.00 in0.0 mm 0.23 in5.8 mm
11:25 PM 51.3°F10.7°C 47.2°F8.4°C 86% 0.2 mph SW0.3 kmh SW 0.7 mph1.1 kmh 29.95 in1014.2 mb 0.00 in0.0 mm 0.00 in0.0 mm 0.23 in5.8 mm
11:30 PM 51.1°F10.6°C 47.0°F8.3°C 86% 0.2 mph SW0.3 kmh SW 0.7 mph1.1 kmh 29.95 in1014.2 mb 0.00 in0.0 mm 0.00 in0.0 mm 0.23 in5.8 mm
11:35 PM 51.1°F10.6°C 47.0°F8.3°C 86% 0.4 mph W0.6 kmh W 1.6 mph2.6 kmh 29.95 in1014.2 mb 0.00 in0.0 mm 0.00 in0.0 mm 0.23 in5.8 mm
11:40 PM 51.1°F10.6°C 47.0°F8.3°C 86% 0.4 mph WNW0.6 kmh WNW 1.6 mph2.6 kmh 29.95 in1014.2 mb 0.00 in0.0 mm 0.00 in0.0 mm 0.23 in5.8 mm
11:45 PM 50.7°F10.4°C 46.7°F8.2°C 86% 0.1 mph NW0.2 kmh NW 1.6 mph2.6 kmh 29.94 in1013.9 mb 0.00 in0.0 mm 0.00 in0.0 mm 0.23 in5.8 mm
11:50 PM 50.4°F10.2°C 46.3°F7.9°C 86% 0.5 mph WNW0.8 kmh WNW 2.2 mph3.5 kmh 29.94 in1013.9 mb 0.00 in0.0 mm 0.00 in0.0 mm 0.23 in5.8 mm
11:55 PM 50.0°F10.0°C 46.3°F7.9°C 87% 1.5 mph W2.4 kmh W 2.2 mph3.5 kmh 29.95 in1014.2 mb 0.00 in0.0 mm 0.00 in0.0 mm 0.23 in5.8 mm